Terminal Aerodrome Forecast
Issued by NWS

Current Version | Previous Version | Text Only | Print | Product List | Glossary On
Versions: 1 2 3 4 5 6 7 8 9 10 11 12 13 14 15 16 17 18 19 20 21 22 23 24 25 26 27
000
FTUS46 KSEW 222300 RRA
TAFSEA
TAF
KSEA 222356Z 2300/2406 15004KT P6SM SCT020 BKN030
     FM230300 17007KT P6SM SCT020 SCT030
     FM230600 19010KT P6SM VCSH BKN030
     FM231000 19013G22KT P6SM -SHRA SCT014 OVC025
     FM231200 19018G28KT 5SM -SHRA BR SCT010 OVC015
     FM231600 22016G24KT P6SM VCSH SCT015 BKN025
     FM232100 23012G20KT P6SM VCSH SCT020 BKN035
     FM240300 20007KT P6SM SCT025 BKN040=

USA.gov is the U.S. government's official web portal to all federal, state and local government web resources and services.